createdAt,value
2024-01-28T00:00:58.314Z,26.10
2024-01-28T00:03:44.674Z,28.10
2024-01-28T00:06:31.249Z,22.30
2024-01-28T00:09:17.550Z,23.70
2024-01-28T00:12:04.138Z,23.10
2024-01-28T00:14:50.414Z,22.70
2024-01-28T00:17:36.349Z,25.40
2024-01-28T00:20:23.341Z,23.50
2024-01-28T00:23:09.541Z,26.50
2024-01-28T00:25:55.834Z,24.80
2024-01-28T00:28:41.848Z,24.80
2024-01-28T00:31:27.697Z,25.60
2024-01-28T00:34:14.368Z,24.30
2024-01-28T00:37:03.626Z,24.00
2024-01-28T00:39:49.760Z,26.90
2024-01-28T00:42:36.605Z,25.80
2024-01-28T00:45:23.090Z,25.60
2024-01-28T00:48:09.151Z,23.30
2024-01-28T00:50:55.330Z,26.90
2024-01-28T00:53:41.564Z,28.00
2024-01-28T00:56:27.816Z,22.10
2024-01-28T00:59:14.237Z,24.60
2024-01-28T01:02:00.333Z,25.60
2024-01-28T01:04:46.068Z,24.10
2024-01-28T01:07:31.973Z,29.70
2024-01-28T01:10:17.904Z,24.80
2024-01-28T01:13:03.823Z,25.70
2024-01-28T01:15:49.760Z,27.40
2024-01-28T01:18:35.594Z,25.80
2024-01-28T01:21:22.204Z,25.80
2024-01-28T01:24:08.525Z,27.20
2024-01-28T01:26:54.849Z,25.80
2024-01-28T01:29:41.138Z,27.10
2024-01-28T01:32:27.466Z,25.90
2024-01-28T01:35:15.354Z,28.70
2024-01-28T01:38:01.669Z,27.10
2024-01-28T01:40:48.195Z,26.40
2024-01-28T01:43:34.382Z,25.60
2024-01-28T01:46:22.644Z,30.10
2024-01-28T01:49:09.716Z,28.80
2024-01-28T01:51:56.365Z,24.80
2024-01-28T01:54:44.663Z,31.30
2024-01-28T01:57:31.841Z,30.50
2024-01-28T02:00:18.180Z,32.30
2024-01-28T02:03:05.069Z,28.50
2024-01-28T02:05:51.500Z,30.70
2024-01-28T02:08:37.423Z,27.90
2024-01-28T02:11:24.243Z,32.70
2024-01-28T02:14:11.354Z,31.20
2024-01-28T02:16:59.710Z,28.50
2024-01-28T02:19:45.809Z,31.00
2024-01-28T02:22:31.737Z,31.30
2024-01-28T02:25:17.735Z,31.40
2024-01-28T02:28:03.871Z,32.00
2024-01-28T02:30:50.060Z,33.30
2024-01-28T02:33:36.343Z,28.90
2024-01-28T02:36:22.354Z,29.80
2024-01-28T02:39:08.696Z,32.60
2024-01-28T02:41:54.873Z,35.70
2024-01-28T02:44:41.360Z,34.30
2024-01-28T02:47:27.344Z,34.60
2024-01-28T02:50:13.725Z,32.00
2024-01-28T02:53:00.220Z,32.30
2024-01-28T02:55:46.134Z,32.70
2024-01-28T02:58:32.057Z,32.70
2024-01-28T03:01:18.254Z,30.00
2024-01-28T03:04:04.368Z,36.40
2024-01-28T03:06:50.437Z,32.70
2024-01-28T03:09:36.474Z,31.40
2024-01-28T03:12:22.714Z,30.00
2024-01-28T03:15:09.084Z,32.00
2024-01-28T03:17:55.361Z,36.20
2024-01-28T03:20:41.353Z,31.40
2024-01-28T03:23:27.333Z,36.00
2024-01-28T03:26:13.698Z,31.40
2024-01-28T03:28:59.961Z,33.70
2024-01-28T03:31:45.905Z,33.90
2024-01-28T03:34:32.003Z,32.90
2024-01-28T03:37:18.435Z,37.40
2024-01-28T03:40:05.026Z,32.40
2024-01-28T03:42:50.817Z,33.30
2024-01-28T03:45:37.092Z,32.70
2024-01-28T03:48:23.331Z,33.20
2024-01-28T03:51:09.542Z,34.90
2024-01-28T03:53:55.972Z,33.20
2024-01-28T03:56:42.010Z,37.90
2024-01-28T03:59:28.858Z,35.70
2024-01-28T04:02:19.309Z,34.10
2024-01-28T04:05:06.256Z,37.50
2024-01-28T04:07:52.683Z,42.30
2024-01-28T04:10:38.740Z,43.30
2024-01-28T04:13:24.787Z,37.80
2024-01-28T04:16:11.215Z,35.60
2024-01-28T04:18:58.088Z,34.30
2024-01-28T04:21:44.283Z,38.60
2024-01-28T04:24:30.779Z,39.10
2024-01-28T04:27:16.916Z,36.70
2024-01-28T04:30:03.491Z,39.10
2024-01-28T04:32:50.440Z,36.90
2024-01-28T04:35:36.506Z,37.30
2024-01-28T04:38:22.883Z,38.10
2024-01-28T04:41:09.266Z,39.20
2024-01-28T04:43:55.725Z,34.30
2024-01-28T04:46:41.590Z,34.90
2024-01-28T04:49:27.717Z,36.40
2024-01-28T04:52:14.443Z,36.40
2024-01-28T04:55:00.555Z,37.90
2024-01-28T04:57:46.468Z,31.80
2024-01-28T05:00:33.176Z,34.10
2024-01-28T05:03:19.331Z,37.10
2024-01-28T05:06:06.174Z,37.70
2024-01-28T05:08:52.200Z,38.70
2024-01-28T05:11:38.248Z,38.60
2024-01-28T05:14:24.129Z,37.40
2024-01-28T05:17:10.031Z,36.30
2024-01-28T05:19:55.912Z,35.90
2024-01-28T05:22:41.807Z,35.90
2024-01-28T05:25:28.059Z,33.50
2024-01-28T05:28:14.390Z,37.60
2024-01-28T05:31:00.608Z,37.60
2024-01-28T05:33:48.338Z,40.10
2024-01-28T05:36:34.604Z,39.20
2024-01-28T05:39:20.706Z,36.20
2024-01-28T05:42:06.506Z,38.40
2024-01-28T05:44:52.710Z,36.70
2024-01-28T05:47:38.877Z,39.70
2024-01-28T05:50:24.770Z,38.00
2024-01-28T05:53:10.908Z,35.30
2024-01-28T05:55:57.003Z,39.50
2024-01-28T05:58:42.912Z,35.80
2024-01-28T06:01:29.128Z,39.50
2024-01-28T06:04:15.032Z,42.30
2024-01-28T06:07:01.801Z,40.60
2024-01-28T06:09:47.960Z,39.50
2024-01-28T06:12:34.396Z,37.50
2024-01-28T06:15:20.500Z,38.50
2024-01-28T06:18:07.128Z,34.90
2024-01-28T06:20:53.081Z,35.40
2024-01-28T06:23:39.354Z,37.20
2024-01-28T06:26:25.457Z,38.00
2024-01-28T06:29:11.488Z,36.40
2024-01-28T06:31:57.525Z,34.60
2024-01-28T06:34:43.429Z,37.10
2024-01-28T06:37:30.051Z,35.30
2024-01-28T06:40:16.135Z,36.10
2024-01-28T06:43:02.059Z,38.20
2024-01-28T06:45:48.069Z,35.90
2024-01-28T06:48:34.574Z,36.00
2024-01-28T06:51:20.961Z,37.10
2024-01-28T06:54:06.901Z,37.00
2024-01-28T06:56:53.289Z,38.60
2024-01-28T06:59:39.206Z,37.50
2024-01-28T07:02:26.210Z,35.60
2024-01-28T07:05:13.002Z,40.30
2024-01-28T07:07:59.184Z,40.90
2024-01-28T07:10:44.993Z,37.80
2024-01-28T07:13:31.389Z,43.50
2024-01-28T07:16:17.574Z,36.60
2024-01-28T07:19:03.542Z,45.40
2024-01-28T07:21:52.084Z,38.40
2024-01-28T07:24:38.517Z,37.90
2024-01-28T07:27:24.784Z,36.50
2024-01-28T07:30:10.851Z,40.20
2024-01-28T07:32:57.166Z,39.50
2024-01-28T07:35:43.740Z,36.20
2024-01-28T07:38:30.016Z,39.00
2024-01-28T07:41:16.581Z,40.30
2024-01-28T07:44:03.726Z,41.20
2024-01-28T07:46:49.638Z,42.30
2024-01-28T07:49:36.692Z,40.70
2024-01-28T07:52:22.980Z,42.60
2024-01-28T07:55:09.023Z,39.70
2024-01-28T07:57:56.308Z,37.30
2024-01-28T08:00:42.535Z,46.00
2024-01-28T08:03:28.511Z,41.30
2024-01-28T08:06:14.998Z,39.80
2024-01-28T08:09:29.381Z,42.50
2024-01-28T08:12:29.203Z,40.80
2024-01-28T08:15:16.886Z,41.70
2024-01-28T08:18:03.006Z,46.60
2024-01-28T08:20:49.288Z,39.20
2024-01-28T08:23:35.409Z,41.70
2024-01-28T08:26:21.601Z,39.90
2024-01-28T08:29:07.697Z,38.10
2024-01-28T08:31:53.786Z,42.90
2024-01-28T08:34:40.218Z,37.50
2024-01-28T08:37:26.964Z,36.80
2024-01-28T08:40:13.074Z,37.90
2024-01-28T08:42:59.356Z,42.20
2024-01-28T08:45:45.422Z,33.80
2024-01-28T08:48:32.618Z,42.40
2024-01-28T08:51:18.956Z,38.20
2024-01-28T08:54:04.870Z,41.00
2024-01-28T08:56:51.473Z,39.40
2024-01-28T08:59:37.762Z,37.60
2024-01-28T09:02:23.685Z,38.20
2024-01-28T09:05:11.603Z,40.00
2024-01-28T09:07:58.013Z,31.90
2024-01-28T09:10:44.049Z,34.30
2024-01-28T09:13:30.093Z,37.50
2024-01-28T09:16:16.075Z,36.60
2024-01-28T09:19:05.496Z,35.80
2024-01-28T09:21:52.038Z,34.50
2024-01-28T09:24:39.880Z,31.70
2024-01-28T09:27:26.590Z,34.10
2024-01-28T09:30:12.886Z,38.00
2024-01-28T09:32:59.359Z,34.90
2024-01-28T09:35:48.009Z,32.70
2024-01-28T09:38:34.485Z,33.20
2024-01-28T09:41:29.886Z,37.30
2024-01-28T09:44:16.124Z,37.60
2024-01-28T09:47:03.138Z,38.50
2024-01-28T09:49:49.843Z,36.40
2024-01-28T09:52:36.331Z,33.30
2024-01-28T09:55:22.885Z,36.00
2024-01-28T09:58:11.926Z,33.00
2024-01-28T10:00:57.967Z,33.20
2024-01-28T10:03:44.534Z,31.80
2024-01-28T10:06:31.207Z,33.50
2024-01-28T10:09:17.532Z,29.50
2024-01-28T10:12:04.214Z,29.20
2024-01-28T10:14:53.750Z,30.90
2024-01-28T10:17:39.953Z,31.40
2024-01-28T10:20:29.584Z,33.40
2024-01-28T10:23:16.534Z,33.60
2024-01-28T10:26:02.643Z,29.30
2024-01-28T10:28:49.163Z,31.40
2024-01-28T10:31:35.373Z,26.20
2024-01-28T10:34:22.174Z,24.50
2024-01-28T10:37:13.175Z,27.40
2024-01-28T10:40:09.661Z,28.20
2024-01-28T10:42:57.799Z,26.10
2024-01-28T10:45:47.352Z,29.50
2024-01-28T10:48:35.169Z,28.00
2024-01-28T10:51:21.667Z,31.70
2024-01-28T10:54:09.705Z,29.80
2024-01-28T10:56:57.912Z,32.30
2024-01-28T10:59:44.290Z,34.90
2024-01-28T11:02:33.386Z,26.70
2024-01-28T11:05:20.225Z,28.50
2024-01-28T11:08:09.692Z,26.80
2024-01-28T11:10:55.856Z,24.80
2024-01-28T11:13:44.457Z,27.30
2024-01-28T11:16:31.296Z,23.90
2024-01-28T11:19:17.460Z,25.10
2024-01-28T11:22:04.384Z,27.90
2024-01-28T11:24:54.121Z,28.00
2024-01-28T11:27:41.298Z,30.00
2024-01-28T11:30:27.947Z,24.60
2024-01-28T11:33:17.041Z,25.90
2024-01-28T11:36:04.175Z,27.10
2024-01-28T11:38:57.512Z,28.90
2024-01-28T11:41:46.222Z,25.50
2024-01-28T11:44:40.756Z,25.60
2024-01-28T11:47:30.730Z,24.90
2024-01-28T11:50:17.570Z,23.80
2024-01-28T11:53:06.922Z,27.30
2024-01-28T11:55:53.313Z,23.30
2024-01-28T11:58:39.297Z,21.90
2024-01-28T12:01:25.876Z,26.10
2024-01-28T12:04:12.573Z,23.10
2024-01-28T12:06:58.902Z,26.10
2024-01-28T12:09:45.249Z,22.00
2024-01-28T12:12:36.525Z,24.10
2024-01-28T12:15:22.665Z,22.10
2024-01-28T12:18:11.419Z,24.30
2024-01-28T12:20:57.639Z,24.50
2024-01-28T12:23:52.191Z,23.00
2024-01-28T12:26:38.502Z,26.00
2024-01-28T12:29:24.485Z,19.90
2024-01-28T12:32:10.882Z,25.80
2024-01-28T12:34:58.439Z,24.40
2024-01-28T12:37:44.624Z,21.90
2024-01-28T12:40:34.252Z,24.40
2024-01-28T12:43:22.580Z,23.00
2024-01-28T12:46:09.531Z,21.20
2024-01-28T12:48:57.107Z,25.50
2024-01-28T12:51:44.848Z,24.40
2024-01-28T12:54:31.117Z,22.60
2024-01-28T12:57:18.466Z,25.90
2024-01-28T13:00:08.609Z,24.60
2024-01-28T13:02:55.054Z,24.10
2024-01-28T13:05:41.756Z,24.30
2024-01-28T13:08:29.220Z,23.10
2024-01-28T13:11:15.594Z,25.70
2024-01-28T13:14:04.004Z,23.90
2024-01-28T13:16:53.629Z,26.10
2024-01-28T13:19:39.795Z,23.80
2024-01-28T13:22:26.338Z,30.40
2024-01-28T13:25:13.675Z,34.20
2024-01-28T13:28:00.301Z,32.90
2024-01-28T13:30:46.430Z,28.80
2024-01-28T13:33:32.722Z,27.90
2024-01-28T13:36:19.104Z,25.10
2024-01-28T13:39:09.790Z,24.20
2024-01-28T13:41:56.593Z,41.60
2024-01-28T13:44:45.466Z,28.60
2024-01-28T13:47:31.736Z,27.50
2024-01-28T13:50:18.066Z,31.80
2024-01-28T13:53:09.254Z,28.30
2024-01-28T13:55:55.930Z,29.30
2024-01-28T13:58:42.063Z,26.90
2024-01-28T14:01:28.390Z,31.50
2024-01-28T14:04:16.997Z,27.80
2024-01-28T14:07:03.494Z,31.80
2024-01-28T14:09:50.237Z,28.30
2024-01-28T14:12:36.797Z,27.80
2024-01-28T14:15:23.277Z,23.00
2024-01-28T14:18:09.625Z,20.10
2024-01-28T14:20:56.187Z,24.10
2024-01-28T14:23:42.381Z,21.40
2024-01-28T14:26:28.778Z,25.20
2024-01-28T14:29:15.301Z,24.00
2024-01-28T14:32:01.460Z,25.90
2024-01-28T14:34:47.959Z,19.30
2024-01-28T14:37:34.629Z,23.50
2024-01-28T14:40:21.195Z,19.30
2024-01-28T14:43:07.514Z,21.50
2024-01-28T14:46:00.084Z,19.90
2024-01-28T14:48:46.994Z,23.00
2024-01-28T14:51:33.438Z,20.30
2024-01-28T14:54:20.788Z,23.00
2024-01-28T14:57:08.798Z,21.70
2024-01-28T14:59:56.300Z,21.30
2024-01-28T15:02:43.248Z,20.20
2024-01-28T15:05:29.300Z,19.20
2024-01-28T15:08:17.231Z,23.10
2024-01-28T15:11:05.035Z,22.10
2024-01-28T15:13:51.139Z,21.70
2024-01-28T15:16:41.308Z,18.80
2024-01-28T15:19:28.082Z,20.70
2024-01-28T15:22:14.037Z,19.70
2024-01-28T15:25:01.097Z,19.90
2024-01-28T15:27:48.269Z,21.60
2024-01-28T15:30:34.523Z,16.70
2024-01-28T15:33:20.811Z,18.40
2024-01-28T15:36:08.946Z,19.10
2024-01-28T15:38:55.385Z,22.30
2024-01-28T15:41:41.791Z,20.90
2024-01-28T15:44:28.783Z,21.90
2024-01-28T15:47:15.793Z,19.60
2024-01-28T15:50:02.594Z,20.30
2024-01-28T15:52:51.970Z,19.00
2024-01-28T15:55:37.928Z,26.20
2024-01-28T15:58:24.648Z,22.50
2024-01-28T16:01:11.172Z,21.20
2024-01-28T16:03:57.353Z,20.10
2024-01-28T16:06:44.210Z,16.50
2024-01-28T16:09:35.766Z,17.10
2024-01-28T16:12:28.889Z,16.40
2024-01-28T16:15:15.233Z,15.60
2024-01-28T16:18:02.061Z,17.80
2024-01-28T16:20:48.535Z,18.40
2024-01-28T16:23:34.845Z,17.00
2024-01-28T16:26:21.169Z,17.40
2024-01-28T16:29:07.545Z,17.40
2024-01-28T16:31:53.828Z,19.60
2024-01-28T16:34:40.438Z,17.20
2024-01-28T16:37:26.985Z,19.70
2024-01-28T16:40:15.078Z,16.40
2024-01-28T16:43:02.072Z,17.60
2024-01-28T16:45:48.241Z,18.70
2024-01-28T16:48:34.746Z,20.30
2024-01-28T16:51:21.024Z,16.10
2024-01-28T16:54:07.635Z,17.20
2024-01-28T16:56:53.764Z,16.80
2024-01-28T16:59:39.815Z,16.60
2024-01-28T17:02:26.339Z,14.20
2024-01-28T17:05:13.042Z,15.60
2024-01-28T17:07:59.458Z,14.00
2024-01-28T17:10:45.779Z,15.20
2024-01-28T17:13:34.800Z,18.00
2024-01-28T17:16:20.716Z,16.70
2024-01-28T17:19:06.869Z,17.00
2024-01-28T17:21:54.129Z,19.40
2024-01-28T17:24:40.553Z,17.00
2024-01-28T17:27:28.264Z,19.40
2024-01-28T17:30:16.151Z,18.40
2024-01-28T17:33:04.119Z,17.90
2024-01-28T17:35:50.360Z,17.80
2024-01-28T17:38:37.161Z,14.70
2024-01-28T17:41:23.389Z,15.30
2024-01-28T17:44:09.589Z,15.10
2024-01-28T17:46:55.784Z,12.50
2024-01-28T17:49:42.237Z,14.40
2024-01-28T17:52:28.597Z,16.40
2024-01-28T17:55:15.655Z,16.70
2024-01-28T17:58:01.873Z,17.40
2024-01-28T18:00:47.975Z,16.70
2024-01-28T18:03:35.620Z,17.40
2024-01-28T18:06:21.770Z,17.70
2024-01-28T18:09:10.117Z,16.10
2024-01-28T18:11:56.369Z,17.20
2024-01-28T18:14:43.012Z,18.60
2024-01-28T18:20:25.200Z,19.60
2024-01-28T18:23:11.611Z,17.20
2024-01-28T18:25:58.184Z,13.80
2024-01-28T18:28:44.375Z,15.80
2024-01-28T18:31:31.263Z,16.20
2024-01-28T18:34:18.045Z,14.80
2024-01-28T18:37:04.822Z,16.40
2024-01-28T18:39:51.276Z,16.50
2024-01-28T18:42:39.897Z,14.20
2024-01-28T18:45:26.539Z,15.80
2024-01-28T18:48:18.588Z,17.70
2024-01-28T18:51:07.525Z,16.60
2024-01-28T18:53:55.129Z,18.10
2024-01-28T18:56:41.765Z,16.70
2024-01-28T18:59:28.229Z,17.90
2024-01-28T19:02:16.937Z,15.70
2024-01-28T19:05:05.592Z,17.60
2024-01-28T19:07:54.220Z,16.40
2024-01-28T19:10:40.523Z,19.00
2024-01-28T19:13:27.132Z,16.00
2024-01-28T19:16:13.865Z,16.40
2024-01-28T19:19:00.353Z,19.90
2024-01-28T19:21:47.153Z,19.10
2024-01-28T19:24:33.742Z,20.90
2024-01-28T19:27:19.824Z,17.60
2024-01-28T19:30:06.604Z,16.40
2024-01-28T19:32:53.934Z,16.90
2024-01-28T19:35:44.743Z,18.60
2024-01-28T19:38:31.188Z,20.30
2024-01-28T19:41:17.741Z,20.80
2024-01-28T19:44:05.033Z,20.10
2024-01-28T19:46:51.135Z,24.90
2024-01-28T19:49:37.571Z,20.50
2024-01-28T19:52:24.141Z,18.50
2024-01-28T19:55:10.501Z,16.40
2024-01-28T19:57:57.022Z,18.90
2024-01-28T20:00:44.105Z,19.30
2024-01-28T20:03:31.063Z,21.50
2024-01-28T20:06:27.484Z,33.80
2024-01-28T20:09:19.277Z,27.50
2024-01-28T20:12:06.476Z,28.10
2024-01-28T20:14:53.119Z,24.70
2024-01-28T20:17:39.722Z,28.50
2024-01-28T20:20:26.043Z,29.00
2024-01-28T20:23:15.016Z,28.30
2024-01-28T20:26:01.758Z,26.50
2024-01-28T20:28:48.671Z,24.40
2024-01-28T20:31:34.920Z,24.60
2024-01-28T20:34:21.937Z,22.30
2024-01-28T20:37:08.049Z,25.00
2024-01-28T20:39:54.316Z,22.80
2024-01-28T20:42:51.543Z,26.30
2024-01-28T20:45:37.850Z,28.00
2024-01-28T20:51:11.070Z,22.20
2024-01-28T20:53:57.372Z,25.00
2024-01-28T20:56:43.886Z,24.10
2024-01-28T20:59:30.254Z,23.40
2024-01-28T21:02:17.852Z,25.80
2024-01-28T21:05:05.612Z,27.00
2024-01-28T21:07:51.985Z,25.80
2024-01-28T21:10:39.636Z,28.90
2024-01-28T21:13:26.097Z,27.20
2024-01-28T21:16:12.136Z,25.50
2024-01-28T21:18:58.660Z,24.60
2024-01-28T21:21:45.330Z,21.40
2024-01-28T21:24:32.197Z,22.70
2024-01-28T21:27:18.760Z,23.70
2024-01-28T21:30:06.125Z,20.70
2024-01-28T21:32:52.575Z,27.00
2024-01-28T21:35:39.821Z,24.90
2024-01-28T21:38:26.437Z,23.70
2024-01-28T21:41:12.535Z,21.00
2024-01-28T21:43:58.840Z,21.90
2024-01-28T21:46:45.232Z,19.40
2024-01-28T21:49:31.897Z,19.40
2024-01-28T21:52:18.752Z,21.40
2024-01-28T21:55:08.594Z,21.40
2024-01-28T21:57:54.800Z,23.50
2024-01-28T22:00:41.569Z,23.80
2024-01-28T22:03:28.427Z,20.20
2024-01-28T22:06:15.071Z,24.40
2024-01-28T22:09:01.329Z,25.50
2024-01-28T22:11:48.870Z,22.60
2024-01-28T22:14:36.574Z,24.10
2024-01-28T22:17:23.308Z,24.00
2024-01-28T22:20:10.212Z,22.80
2024-01-28T22:22:57.117Z,21.90
2024-01-28T22:25:44.717Z,21.90
2024-01-28T22:28:31.996Z,21.80
2024-01-28T22:31:18.155Z,21.90
2024-01-28T22:34:04.947Z,21.80
2024-01-28T22:36:51.116Z,22.40
2024-01-28T22:39:37.713Z,20.90
2024-01-28T22:42:24.192Z,17.80
2024-01-28T22:45:11.636Z,22.40
2024-01-28T22:47:57.911Z,21.00
2024-01-28T22:50:44.566Z,24.00
2024-01-28T22:53:31.804Z,23.30
2024-01-28T22:56:18.451Z,22.40
2024-01-28T22:59:06.381Z,18.50
2024-01-28T23:01:53.060Z,19.20
2024-01-28T23:04:39.427Z,23.40
2024-01-28T23:07:25.868Z,25.30
2024-01-28T23:10:13.952Z,20.10
2024-01-28T23:13:05.777Z,21.40
2024-01-28T23:22:08.885Z,17.80
2024-01-28T23:24:55.904Z,19.10
2024-01-28T23:27:42.751Z,16.10
2024-01-28T23:30:29.378Z,19.20
2024-01-28T23:33:16.037Z,14.00
2024-01-28T23:36:03.299Z,19.20
2024-01-28T23:38:49.675Z,17.00
2024-01-28T23:41:41.022Z,18.60
2024-01-28T23:44:27.771Z,17.00
2024-01-28T23:47:14.197Z,19.90
2024-01-28T23:50:01.019Z,20.50
2024-01-28T23:52:47.942Z,16.50
2024-01-28T23:55:34.112Z,15.20
2024-01-28T23:58:21.194Z,20.10
